Das aktuelle Bild unserer Wetterstation

Die Wetterinformationen haben nur informativen Charakter und dürfen nicht zum Zwecke der Flugplanung benutzt werden !!

METAR EDWI 190850Z AUTO VRB02KT 9999 FEW026 SCT033 22/05 Q1020=
Heute ist
Donnerstag, 19.07.2018
Sonnenaufgang
05:21 MESZ
Sonnenuntergang
21:45 MESZ

Der Platz ist bis zum 15. Juli 22:00 Uhr geschlossen